Kezdőlap
METAR-TAF:

METAR-TAF

Repülőterek :

Luangphabang, Laosz

földrajzi szélesség: 19-53N, földrajzi hosszúság: 102-08E, magasság: 305 m

Jelenlegi meteorológiai megfigyelések

A jelentés 56 perccel ezelõtt készült, 02:00 UTC
Keleti szél 2 kt
Hőmérséklet 29°C
Páratartalom 70%
Légköri nyomás 1010 hPa
Látótávolság 10 km, vagy több
Szórványos felhőzet 2000 lábon
Szakadozott felhőzet 6000 lábon

METAR: VLLB 130200Z 09002KT 9999 SCT020 BKN060 29/23 Q1010 NOSIG

Idő: 09:56 (02:56 UTC)

Előrejelzés

A jelentés 3 órával és 56 perccel ezelõtt készült, 23:00 UTC
Az előrejelzés 13-én 00 óra UTC és 13-én 24 óra UTC között érvényes
Délnyugati szél 4 kt
Látótávolság 10 km, vagy több
Szórványos felhőzet 2000 lábon
Szakadozott felhőzet 8000 lábon

TAF: VLLB 122300Z 1300/1324 22004KT 9999 SCT020 BKN080

Meteorológiai megfigyelések és előrejelzések több, mint 4000 repülőtéren (METAR és TAF jelentéseket).

A térképen piros és sárga pontok jelzik az elérhető meteorológiai állomásokat.

Mozgassa az egeret a pont fölött, hogy megjelenjen az állomás neve.

Azután kattintson az időjárási megfigyelések és előrejelzések megtekintéséhez.

A térkép megváltoztatása: kattintson a fekete keresztel jelölt zöld gombra ráközelítéshez, a vonallal jelölt zöld gombra távolításhoz, vagy a zöld nyilakra a szomszédos térképek eléréséhez.


METAR-TAF: